Winchester, Missouri
Current Conditions -  °F | °C
As of 1:54 AM on Monday 26 Jan 2015 (Local Time) from KSUS Reporting Station
Scattered Clouds Scattered Clouds  
Wind Chill: 21°   Ceiling: Unl
Heat Index: 29°   Visibility: 10mi
Dew Point: 21°   Wind: 8mph
Humidity: 72%   Direction: 330°NNW
Pressure: 30.05"   Gusts: 21mph
Location:  38.5691°N, 90.5462°W
Report Text: KSUS 260754Z AUTO 33007G18KT 10SM SCT018 M02/M06 A3005 RMK AO2 SLP181 T10171061 $
Loading
Personal Weather Stations






























Interactive Weather Map New forecast layout! Learn more

10-Day Weather Forecast

Advertisements
Track Severe Weather on mobile